createdAt,value
2018-10-04T00:02:21.769Z,4.70
2018-10-04T00:07:25.005Z,4.87
2018-10-04T00:12:28.269Z,4.17
2018-10-04T00:17:31.465Z,4.70
2018-10-04T00:22:34.677Z,4.17
2018-10-04T00:27:37.870Z,4.40
2018-10-04T00:32:41.088Z,5.27
2018-10-04T00:37:44.294Z,5.07
2018-10-04T00:42:47.511Z,5.00
2018-10-04T00:47:50.737Z,4.70
2018-10-04T00:52:53.961Z,4.83
2018-10-04T00:57:57.234Z,5.10
2018-10-04T01:03:00.421Z,5.07
2018-10-04T01:08:03.626Z,5.17
2018-10-04T01:13:07.001Z,4.50
2018-10-04T01:18:21.657Z,4.87
2018-10-04T01:23:24.870Z,5.60
2018-10-04T01:28:28.105Z,5.97
2018-10-04T01:33:31.572Z,5.80
2018-10-04T01:38:34.782Z,6.53
2018-10-04T01:43:37.997Z,4.97
2018-10-04T01:48:41.195Z,5.27
2018-10-04T01:53:44.390Z,5.27
2018-10-04T01:58:47.589Z,4.50
2018-10-04T02:03:50.775Z,4.03
2018-10-04T02:08:54.010Z,3.67
2018-10-04T02:13:57.272Z,3.50
2018-10-04T02:19:00.473Z,3.43
2018-10-04T02:24:03.786Z,3.90
2018-10-04T02:29:07.018Z,3.70
2018-10-04T02:34:10.310Z,3.07
2018-10-04T02:39:13.522Z,3.97
2018-10-04T02:44:16.738Z,4.13
2018-10-04T02:49:19.950Z,5.00
2018-10-04T02:54:25.246Z,4.53
2018-10-04T02:59:28.530Z,3.80
2018-10-04T03:04:31.742Z,4.07
2018-10-04T03:09:34.975Z,4.77
2018-10-04T03:14:38.221Z,4.80
2018-10-04T03:19:41.497Z,4.70
2018-10-04T03:24:44.709Z,4.30
2018-10-04T03:29:47.969Z,4.27
2018-10-04T03:34:51.209Z,4.70
2018-10-04T03:39:54.462Z,4.50
2018-10-04T03:44:57.684Z,4.43
2018-10-04T03:50:00.919Z,4.67
2018-10-04T03:55:05.218Z,5.33
2018-10-04T04:00:08.556Z,4.70
2018-10-04T04:05:11.792Z,4.67
2018-10-04T04:10:15.030Z,4.57
2018-10-04T04:15:18.283Z,4.90
2018-10-04T04:20:24.736Z,4.37
2018-10-04T04:25:27.978Z,4.47
2018-10-04T04:30:31.276Z,4.90
2018-10-04T04:35:34.442Z,4.83
2018-10-04T04:40:37.716Z,5.60
2018-10-04T04:45:40.882Z,5.50
2018-10-04T04:50:44.090Z,4.97
2018-10-04T04:55:47.295Z,5.10
2018-10-04T05:00:50.496Z,5.53
2018-10-04T05:05:53.726Z,5.30
2018-10-04T05:10:57.034Z,5.23
2018-10-04T05:16:00.357Z,4.50
2018-10-04T05:21:03.532Z,5.27
2018-10-04T05:26:06.846Z,4.63
2018-10-04T05:31:10.099Z,4.73
2018-10-04T05:36:13.299Z,4.60
2018-10-04T05:41:16.582Z,4.47
2018-10-04T05:46:19.890Z,5.00
2018-10-04T05:51:23.150Z,5.20
2018-10-04T05:56:28.450Z,4.60
2018-10-04T06:01:31.666Z,4.27
2018-10-04T06:06:34.881Z,4.57
2018-10-04T06:11:38.097Z,4.37
2018-10-04T06:16:41.423Z,4.37
2018-10-04T06:21:44.910Z,5.07
2018-10-04T06:26:48.162Z,4.77
2018-10-04T06:31:51.362Z,5.27
2018-10-04T06:36:54.641Z,4.53
2018-10-04T06:41:57.841Z,4.40
2018-10-04T06:47:01.097Z,5.50
2018-10-04T06:52:04.294Z,6.37
2018-10-04T06:57:08.541Z,5.03
2018-10-04T07:02:11.738Z,5.73
2018-10-04T07:07:15.026Z,5.60
2018-10-04T07:12:18.233Z,5.83
2018-10-04T07:17:21.438Z,5.50
2018-10-04T07:22:24.621Z,6.83
2018-10-04T07:27:27.858Z,6.33
2018-10-04T07:32:31.243Z,7.70
2018-10-04T07:37:35.062Z,6.07
2018-10-04T07:42:38.328Z,5.60
2018-10-04T07:47:41.522Z,6.97
2018-10-04T07:52:44.810Z,5.57
2018-10-04T07:57:48.014Z,6.57
2018-10-04T08:02:51.301Z,6.27
2018-10-04T08:07:54.494Z,6.60
2018-10-04T08:12:57.740Z,5.33
2018-10-04T08:18:00.982Z,6.03
2018-10-04T08:23:04.226Z,5.47
2018-10-04T08:28:07.459Z,5.40
2018-10-04T08:33:11.758Z,5.93
2018-10-04T08:38:14.952Z,5.37
2018-10-04T08:43:18.202Z,5.90
2018-10-04T08:48:21.478Z,4.80
2018-10-04T08:53:24.695Z,5.30
2018-10-04T08:58:27.914Z,4.80
2018-10-04T09:03:31.275Z,4.97
2018-10-04T09:08:34.582Z,5.60
2018-10-04T09:13:37.973Z,5.97
2018-10-04T09:18:41.266Z,6.27
2018-10-04T09:23:44.598Z,6.60
2018-10-04T09:28:54.333Z,6.17
2018-10-04T09:33:57.705Z,6.03
2018-10-04T09:39:02.235Z,5.73
2018-10-04T09:44:05.441Z,5.60
2018-10-04T09:49:08.679Z,5.23
2018-10-04T09:54:17.404Z,5.07
2018-10-04T09:59:20.752Z,6.97
2018-10-04T10:04:27.621Z,5.57
2018-10-04T10:09:32.451Z,6.07
2018-10-04T10:14:35.792Z,6.13
2018-10-04T10:19:41.141Z,5.27
2018-10-04T10:24:47.206Z,6.77
2018-10-04T10:29:52.533Z,5.47
2018-10-04T10:34:55.861Z,5.70
2018-10-04T10:39:59.549Z,6.37
2018-10-04T10:45:03.553Z,6.00
2018-10-04T10:50:06.834Z,6.07
2018-10-04T10:55:10.118Z,6.57
2018-10-04T11:00:14.515Z,6.00
2018-10-04T11:05:17.786Z,6.43
2018-10-04T11:10:21.074Z,6.03
2018-10-04T11:15:27.115Z,5.90
2018-10-04T11:20:31.442Z,6.60
2018-10-04T11:25:34.801Z,5.50
2018-10-04T11:30:38.014Z,5.13
2018-10-04T11:35:41.210Z,6.27
2018-10-04T11:40:44.474Z,6.37
2018-10-04T11:45:48.759Z,5.63
2018-10-04T11:50:51.966Z,4.87
2018-10-04T11:55:55.289Z,5.70
2018-10-04T12:00:58.542Z,5.20
2018-10-04T12:06:02.743Z,5.80
2018-10-04T12:11:05.958Z,6.13
2018-10-04T12:16:09.246Z,5.90
2018-10-04T12:21:12.470Z,5.10
2018-10-04T12:26:15.735Z,5.70
2018-10-04T12:31:19.064Z,4.90
2018-10-04T12:36:22.398Z,4.33
2018-10-04T12:41:25.601Z,4.80
2018-10-04T12:46:29.094Z,4.63
2018-10-04T12:51:32.443Z,4.67
2018-10-04T12:56:35.751Z,4.37
2018-10-04T13:01:39.413Z,4.87
2018-10-04T13:06:42.829Z,4.03
2018-10-04T13:11:45.991Z,4.00
2018-10-04T13:16:49.305Z,3.90
2018-10-04T13:21:52.638Z,3.93
2018-10-04T13:26:55.967Z,3.70
2018-10-04T13:31:59.169Z,4.30
2018-10-04T13:37:02.416Z,4.23
2018-10-04T13:47:14.442Z,4.50
2018-10-04T13:52:21.309Z,5.63
2018-10-04T13:57:24.618Z,5.33
2018-10-04T14:02:27.995Z,4.23
2018-10-04T14:07:36.494Z,4.33
2018-10-04T14:12:44.152Z,4.37
2018-10-04T14:17:48.557Z,4.13
2018-10-04T14:22:51.953Z,4.93
2018-10-04T14:27:56.986Z,3.43
2018-10-04T14:33:00.316Z,4.20
2018-10-04T14:38:03.646Z,3.53
2018-10-04T14:43:07.171Z,3.90
2018-10-04T14:48:10.533Z,3.70
2018-10-04T14:53:13.757Z,3.20
2018-10-04T14:58:39.489Z,3.80
2018-10-04T15:03:42.838Z,3.10
2018-10-04T15:08:46.145Z,3.93
2018-10-04T15:13:49.414Z,3.40
2018-10-04T15:18:52.730Z,3.50
2018-10-04T15:23:56.022Z,3.80
2018-10-04T15:28:59.257Z,3.10
2018-10-04T15:34:06.927Z,3.10
2018-10-04T15:39:11.074Z,3.17
2018-10-04T15:44:18.589Z,2.90
2018-10-04T15:49:21.822Z,2.70
2018-10-04T15:54:26.047Z,2.27
2018-10-04T15:59:29.302Z,2.63
2018-10-04T16:04:32.513Z,2.87
2018-10-04T16:09:35.760Z,2.70
2018-10-04T16:14:38.965Z,2.80
2018-10-04T16:19:42.220Z,2.43
2018-10-04T16:24:45.465Z,3.10
2018-10-04T16:29:48.691Z,3.00
2018-10-04T16:34:51.917Z,4.50
2018-10-04T16:39:55.231Z,2.87
2018-10-04T16:44:58.466Z,2.90
2018-10-04T16:50:02.400Z,3.53
2018-10-04T16:55:07.206Z,3.17
2018-10-04T17:00:10.426Z,2.70
2018-10-04T17:05:13.647Z,2.90
2018-10-04T17:10:16.967Z,2.70
2018-10-04T17:15:20.247Z,3.00
2018-10-04T17:20:23.483Z,2.77
2018-10-04T17:25:26.807Z,3.50
2018-10-04T17:30:30.122Z,3.17
2018-10-04T17:35:33.383Z,3.20
2018-10-04T17:40:36.706Z,3.20
2018-10-04T17:45:39.941Z,2.93
2018-10-04T17:50:43.198Z,3.40
2018-10-04T17:55:46.551Z,3.63
2018-10-04T18:00:49.808Z,3.60
2018-10-04T18:05:53.038Z,3.13
2018-10-04T18:10:56.345Z,3.23
2018-10-04T18:15:59.658Z,4.77
2018-10-04T18:21:02.930Z,8.40
2018-10-04T18:26:06.313Z,5.00
2018-10-04T18:31:09.624Z,4.40
2018-10-04T18:36:13.746Z,4.00
2018-10-04T18:41:17.013Z,3.20
2018-10-04T18:46:21.258Z,4.47
2018-10-04T18:51:24.486Z,4.20
2018-10-04T18:56:27.763Z,4.63
2018-10-04T19:01:31.026Z,4.53
2018-10-04T19:06:34.235Z,4.33
2018-10-04T19:11:37.818Z,5.37
2018-10-04T19:16:41.270Z,5.20
2018-10-04T19:21:44.496Z,5.53
2018-10-04T19:26:47.742Z,5.23
2018-10-04T19:31:52.042Z,5.60
2018-10-04T19:36:55.397Z,5.50
2018-10-04T19:41:59.658Z,5.77
2018-10-04T19:47:03.101Z,5.53
2018-10-04T19:52:06.336Z,5.17
2018-10-04T19:57:09.564Z,5.33
2018-10-04T20:02:12.930Z,5.47
2018-10-04T20:07:16.235Z,5.30
2018-10-04T20:12:19.662Z,6.03
2018-10-04T20:17:22.969Z,5.87
2018-10-04T20:22:28.675Z,5.43
2018-10-04T20:27:31.919Z,6.07
2018-10-04T20:32:35.240Z,6.03
2018-10-04T20:37:38.551Z,5.53
2018-10-04T20:42:41.850Z,6.13
2018-10-04T20:47:45.109Z,6.63
2018-10-04T20:52:48.298Z,5.70
2018-10-04T20:57:51.822Z,6.27
2018-10-04T21:02:55.062Z,6.47
2018-10-04T21:07:58.345Z,6.27
2018-10-04T21:13:01.628Z,7.17
2018-10-04T21:18:04.943Z,6.90
2018-10-04T21:23:08.385Z,6.90
2018-10-04T21:28:11.535Z,7.63
2018-10-04T21:33:16.796Z,7.60
2018-10-04T21:38:20.188Z,6.83
2018-10-04T21:43:27.513Z,6.67
2018-10-04T21:48:30.748Z,7.50
2018-10-04T21:53:34.210Z,7.83
2018-10-04T21:58:37.518Z,7.70
2018-10-04T22:03:40.766Z,7.80
2018-10-04T22:08:44.052Z,7.87
2018-10-04T22:13:47.289Z,7.83
2018-10-04T22:18:50.489Z,7.33
2018-10-04T22:23:53.705Z,7.57
2018-10-04T22:28:56.954Z,7.57
2018-10-04T22:34:00.258Z,8.27
2018-10-04T22:39:03.642Z,8.07
2018-10-04T22:44:06.881Z,8.10
2018-10-04T22:49:10.118Z,7.97
2018-10-04T22:54:13.343Z,8.30
2018-10-04T22:59:16.590Z,8.87
2018-10-04T23:04:23.300Z,7.47
2018-10-04T23:09:26.550Z,7.77
2018-10-04T23:14:29.827Z,8.40
2018-10-04T23:19:33.094Z,8.20
2018-10-04T23:24:36.381Z,8.37
2018-10-04T23:29:39.625Z,7.90
2018-10-04T23:34:42.846Z,7.93
2018-10-04T23:39:46.059Z,7.10
2018-10-04T23:44:49.249Z,7.20
2018-10-04T23:49:52.466Z,7.90
2018-10-04T23:54:55.833Z,7.73
2018-10-04T23:59:59.036Z,7.63
